createdAt,value
2018-07-30T00:00:40.102Z,7.77
2018-07-30T00:03:08.801Z,7.13
2018-07-30T00:05:36.934Z,8.30
2018-07-30T00:08:05.977Z,8.30
2018-07-30T00:10:34.392Z,8.53
2018-07-30T00:13:02.918Z,7.37
2018-07-30T00:15:31.326Z,7.23
2018-07-30T00:17:59.902Z,10.40
2018-07-30T00:20:28.403Z,7.60
2018-07-30T00:22:57.327Z,7.63
2018-07-30T00:25:25.750Z,8.50
2018-07-30T00:27:54.271Z,7.40
2018-07-30T00:30:22.738Z,7.17
2018-07-30T00:32:51.519Z,6.60
2018-07-30T00:35:20.799Z,7.30
2018-07-30T00:37:49.327Z,7.13
2018-07-30T00:40:17.937Z,7.63
2018-07-30T00:42:48.287Z,7.33
2018-07-30T00:45:17.638Z,7.53
2018-07-30T00:47:46.107Z,7.50
2018-07-30T00:50:14.661Z,7.00
2018-07-30T00:52:43.144Z,7.17
2018-07-30T00:55:11.567Z,7.97
2018-07-30T00:57:40.032Z,8.07
2018-07-30T01:00:09.119Z,8.23
2018-07-30T01:02:38.806Z,7.50
2018-07-30T01:05:07.651Z,7.87
2018-07-30T01:07:36.491Z,7.77
2018-07-30T01:10:05.641Z,7.33
2018-07-30T01:12:34.166Z,7.30
2018-07-30T01:15:02.591Z,7.30
2018-07-30T01:17:31.119Z,7.63
2018-07-30T01:19:59.754Z,9.00
2018-07-30T01:22:29.063Z,7.03
2018-07-30T01:24:57.590Z,7.23
2018-07-30T01:27:26.255Z,7.90
2018-07-30T01:29:54.778Z,7.37
2018-07-30T01:32:23.310Z,9.37
2018-07-30T01:34:51.800Z,7.30
2018-07-30T01:37:20.520Z,8.63
2018-07-30T01:39:49.158Z,7.53
2018-07-30T01:42:17.622Z,8.00
2018-07-30T01:44:46.114Z,7.93
2018-07-30T01:47:14.732Z,7.50
2018-07-30T01:49:43.226Z,7.60
2018-07-30T01:52:11.894Z,8.63
2018-07-30T01:54:40.287Z,7.70
2018-07-30T01:57:09.578Z,8.03
2018-07-30T01:59:37.986Z,8.00
2018-07-30T02:02:06.553Z,8.10
2018-07-30T02:04:35.099Z,9.20
2018-07-30T02:07:04.071Z,8.17
2018-07-30T02:09:32.443Z,7.40
2018-07-30T02:12:00.888Z,7.87
2018-07-30T02:14:29.393Z,7.93
2018-07-30T02:16:57.950Z,8.80
2018-07-30T02:19:26.594Z,7.60
2018-07-30T02:21:55.247Z,7.97
2018-07-30T02:24:23.683Z,8.37
2018-07-30T02:26:52.136Z,8.10
2018-07-30T02:29:20.854Z,8.23
2018-07-30T02:31:49.409Z,8.30
2018-07-30T02:34:17.898Z,8.53
2018-07-30T02:36:46.918Z,7.77
2018-07-30T02:39:15.502Z,8.13
2018-07-30T02:41:44.049Z,7.80
2018-07-30T02:44:12.846Z,7.93
2018-07-30T02:46:41.335Z,7.77
2018-07-30T02:49:10.851Z,11.30
2018-07-30T02:51:39.508Z,7.80
2018-07-30T02:54:08.383Z,9.80
2018-07-30T02:56:38.089Z,7.33
2018-07-30T02:59:06.623Z,7.10
2018-07-30T03:01:34.997Z,8.23
2018-07-30T03:04:03.518Z,7.97
2018-07-30T03:06:31.968Z,9.77
2018-07-30T03:09:00.483Z,10.17
2018-07-30T03:11:28.983Z,10.07
2018-07-30T03:13:57.805Z,7.53
2018-07-30T03:16:26.268Z,7.07
2018-07-30T03:18:54.822Z,7.00
2018-07-30T03:21:23.375Z,7.43
2018-07-30T03:23:52.094Z,8.03
2018-07-30T03:26:20.587Z,8.53
2018-07-30T03:28:49.029Z,7.97
2018-07-30T03:31:17.462Z,7.43
2018-07-30T03:33:47.715Z,8.17
2018-07-30T03:36:16.297Z,7.30
2018-07-30T03:38:44.925Z,6.63
2018-07-30T03:41:13.498Z,7.97
2018-07-30T03:43:41.952Z,12.90
2018-07-30T03:46:10.385Z,6.83
2018-07-30T03:48:39.068Z,7.70
2018-07-30T03:51:08.315Z,7.90
2018-07-30T03:53:36.806Z,7.83
2018-07-30T03:56:05.616Z,7.40
2018-07-30T03:58:34.032Z,7.90
2018-07-30T04:01:02.423Z,7.37
2018-07-30T04:03:30.947Z,7.03
2018-07-30T04:05:59.637Z,8.40
2018-07-30T04:08:28.034Z,7.23
2018-07-30T04:10:56.555Z,7.80
2018-07-30T04:13:25.014Z,7.57
2018-07-30T04:15:53.435Z,7.23
2018-07-30T04:18:21.897Z,6.87
2018-07-30T04:20:50.319Z,7.00
2018-07-30T04:23:18.733Z,8.00
2018-07-30T04:25:47.234Z,7.33
2018-07-30T04:28:15.858Z,7.90
2018-07-30T04:30:44.450Z,7.87
2018-07-30T04:33:12.930Z,10.30
2018-07-30T04:35:41.486Z,7.67
2018-07-30T04:38:10.238Z,7.20
2018-07-30T04:40:38.840Z,7.40
2018-07-30T04:43:07.263Z,7.83
2018-07-30T04:45:35.754Z,7.27
2018-07-30T04:48:04.250Z,8.03
2018-07-30T04:50:32.808Z,6.70
2018-07-30T04:53:01.184Z,7.57
2018-07-30T04:55:29.692Z,7.30
2018-07-30T04:57:58.135Z,7.03
2018-07-30T05:00:26.706Z,7.67
2018-07-30T05:02:55.164Z,8.57
2018-07-30T05:05:23.630Z,8.40
2018-07-30T05:07:52.091Z,7.80
2018-07-30T05:10:20.480Z,7.33
2018-07-30T05:12:49.015Z,7.50
2018-07-30T05:15:17.526Z,7.07
2018-07-30T05:17:45.677Z,7.00
2018-07-30T05:20:14.186Z,6.40
2018-07-30T05:22:42.798Z,6.40
2018-07-30T05:25:11.256Z,7.30
2018-07-30T05:27:39.789Z,10.13
2018-07-30T05:30:08.483Z,7.40
2018-07-30T05:32:36.970Z,7.27
2018-07-30T05:35:05.663Z,7.73
2018-07-30T05:37:34.179Z,7.73
2018-07-30T05:40:04.254Z,7.70
2018-07-30T05:42:32.666Z,7.60
2018-07-30T05:45:01.085Z,7.13
2018-07-30T05:47:29.669Z,6.70
2018-07-30T05:49:58.189Z,6.93
2018-07-30T05:52:26.667Z,7.50
2018-07-30T05:54:55.390Z,7.43
2018-07-30T05:57:23.934Z,7.00
2018-07-30T05:59:52.529Z,6.70
2018-07-30T06:02:21.075Z,6.20
2018-07-30T06:04:49.592Z,8.07
2018-07-30T06:07:18.072Z,6.70
2018-07-30T06:09:46.556Z,6.10
2018-07-30T06:12:15.031Z,6.10
2018-07-30T06:14:43.751Z,6.67
2018-07-30T06:17:12.272Z,6.83
2018-07-30T06:19:40.726Z,7.10
2018-07-30T06:22:09.342Z,7.17
2018-07-30T06:24:37.792Z,7.73
2018-07-30T06:27:06.668Z,6.67
2018-07-30T06:29:35.105Z,7.07
2018-07-30T06:32:03.758Z,7.27
2018-07-30T06:34:32.314Z,7.10
2018-07-30T06:37:00.914Z,6.27
2018-07-30T06:39:31.047Z,5.63
2018-07-30T06:41:59.503Z,6.70
2018-07-30T06:44:27.939Z,6.57
2018-07-30T06:46:56.322Z,7.30
2018-07-30T06:49:24.870Z,7.27
2018-07-30T06:51:53.598Z,6.50
2018-07-30T06:54:22.044Z,6.80
2018-07-30T06:56:50.557Z,8.10
2018-07-30T06:59:22.170Z,9.87
2018-07-30T07:01:51.198Z,6.00
2018-07-30T07:04:19.623Z,6.00
2018-07-30T07:06:48.074Z,6.53
2018-07-30T07:09:16.617Z,5.73
2018-07-30T07:11:45.136Z,5.67
2018-07-30T07:14:14.292Z,5.70
2018-07-30T07:16:42.817Z,5.27
2018-07-30T07:19:11.290Z,5.77
2018-07-30T07:21:39.790Z,6.00
2018-07-30T07:24:08.501Z,5.87
2018-07-30T07:26:37.007Z,5.33
2018-07-30T07:29:05.519Z,6.97
2018-07-30T07:31:34.051Z,6.10
2018-07-30T07:34:02.450Z,6.00
2018-07-30T07:36:30.931Z,5.97
2018-07-30T07:38:59.340Z,6.90
2018-07-30T07:41:27.779Z,6.03
2018-07-30T07:43:56.231Z,6.93
2018-07-30T07:46:24.773Z,7.53
2018-07-30T07:48:53.216Z,8.03
2018-07-30T07:51:21.712Z,7.57
2018-07-30T07:53:50.183Z,8.97
2018-07-30T07:56:18.609Z,8.03
2018-07-30T07:58:47.030Z,7.07
2018-07-30T08:01:15.527Z,5.73
2018-07-30T08:03:44.019Z,7.93
2018-07-30T08:06:12.488Z,5.50
2018-07-30T08:08:41.005Z,5.30
2018-07-30T08:11:09.476Z,5.37
2018-07-30T08:13:38.013Z,5.83
2018-07-30T08:16:06.687Z,5.63
2018-07-30T08:18:35.260Z,6.50
2018-07-30T08:21:03.812Z,5.30
2018-07-30T08:23:32.302Z,5.27
2018-07-30T08:26:00.760Z,6.20
2018-07-30T08:28:29.227Z,5.33
2018-07-30T08:30:57.744Z,9.00
2018-07-30T08:33:26.187Z,5.63
2018-07-30T08:35:54.682Z,3.77
2018-07-30T08:38:23.215Z,4.77
2018-07-30T08:40:53.271Z,4.43
2018-07-30T08:43:21.790Z,5.60
2018-07-30T08:45:50.430Z,4.40
2018-07-30T08:48:19.074Z,4.87
2018-07-30T08:50:47.734Z,7.47
2018-07-30T08:53:16.241Z,5.30
2018-07-30T08:55:44.791Z,6.07
2018-07-30T08:58:13.310Z,5.47
2018-07-30T09:00:41.943Z,5.87
2018-07-30T09:03:11.039Z,8.30
2018-07-30T09:05:39.612Z,7.23
2018-07-30T09:08:08.818Z,7.13
2018-07-30T09:10:37.282Z,8.03
2018-07-30T09:13:06.685Z,4.60
2018-07-30T09:15:35.323Z,4.13
2018-07-30T09:18:03.856Z,3.93
2018-07-30T09:20:32.375Z,5.40
2018-07-30T09:23:00.920Z,3.60
2018-07-30T09:25:29.398Z,3.70
2018-07-30T09:27:57.887Z,3.87
2018-07-30T09:30:28.608Z,3.77
2018-07-30T09:32:57.493Z,3.73
2018-07-30T09:35:25.883Z,4.20
2018-07-30T09:37:54.390Z,4.03
2018-07-30T09:40:22.979Z,4.17
2018-07-30T09:42:51.442Z,4.20
2018-07-30T09:45:20.040Z,4.13
2018-07-30T09:47:48.539Z,4.30
2018-07-30T09:50:17.046Z,5.30
2018-07-30T09:52:45.504Z,3.90
2018-07-30T09:55:13.974Z,4.17
2018-07-30T09:57:42.402Z,4.47
2018-07-30T10:00:11.078Z,4.03
2018-07-30T10:02:39.848Z,6.30
2018-07-30T10:05:10.247Z,3.77
2018-07-30T10:07:38.940Z,4.37
2018-07-30T10:10:08.990Z,4.00
2018-07-30T10:12:37.580Z,4.67
2018-07-30T10:15:06.088Z,4.20
2018-07-30T10:17:34.660Z,4.07
2018-07-30T10:20:03.103Z,4.10
2018-07-30T10:22:31.694Z,5.33
2018-07-30T10:25:00.181Z,6.43
2018-07-30T10:27:30.654Z,3.93
2018-07-30T10:29:59.117Z,4.20
2018-07-30T10:32:27.578Z,4.00
2018-07-30T10:34:56.171Z,3.63
2018-07-30T10:37:25.294Z,5.27
2018-07-30T10:39:53.870Z,3.93
2018-07-30T10:42:22.395Z,3.63
2018-07-30T10:44:50.872Z,3.70
2018-07-30T10:47:19.367Z,3.43
2018-07-30T10:49:47.867Z,3.70
2018-07-30T10:52:16.312Z,3.63
2018-07-30T10:54:44.806Z,3.97
2018-07-30T10:57:13.478Z,3.40
2018-07-30T10:59:42.251Z,3.80
2018-07-30T11:02:10.847Z,3.10
2018-07-30T11:04:41.670Z,3.60
2018-07-30T11:07:10.343Z,3.50
2018-07-30T11:09:38.861Z,3.83
2018-07-30T11:12:07.396Z,4.00
2018-07-30T11:14:35.918Z,3.90
2018-07-30T11:17:05.989Z,3.70
2018-07-30T11:19:35.219Z,3.97
2018-07-30T11:22:03.820Z,3.67
2018-07-30T11:24:32.871Z,3.10
2018-07-30T11:27:01.762Z,3.70
2018-07-30T11:29:30.948Z,4.43
2018-07-30T11:31:59.586Z,5.23
2018-07-30T11:34:28.123Z,5.37
2018-07-30T11:36:56.714Z,3.30
2018-07-30T11:39:25.507Z,5.80
2018-07-30T11:41:54.079Z,3.80
2018-07-30T11:44:22.767Z,3.53
2018-07-30T11:46:51.840Z,3.37
2018-07-30T11:49:20.909Z,3.00
2018-07-30T11:51:50.415Z,3.93
2018-07-30T11:54:19.484Z,5.17
2018-07-30T11:56:48.071Z,2.90
2018-07-30T11:59:16.548Z,3.93
2018-07-30T12:01:45.049Z,3.20
2018-07-30T12:04:13.555Z,5.23
2018-07-30T12:06:42.821Z,3.63
2018-07-30T12:09:11.475Z,3.70
2018-07-30T12:11:40.988Z,4.50
2018-07-30T12:14:10.097Z,3.60
2018-07-30T12:16:38.956Z,3.17
2018-07-30T12:19:07.753Z,3.70
2018-07-30T12:21:39.805Z,4.00
2018-07-30T12:24:09.176Z,3.50
2018-07-30T12:26:37.906Z,4.83
2018-07-30T12:29:07.722Z,3.27
2018-07-30T12:31:37.209Z,3.30
2018-07-30T12:34:06.200Z,4.17
2018-07-30T12:36:35.879Z,3.47
2018-07-30T12:39:07.282Z,4.63
2018-07-30T12:41:36.139Z,4.90
2018-07-30T12:44:04.936Z,3.50
2018-07-30T12:46:33.698Z,3.20
2018-07-30T12:49:03.364Z,3.23
2018-07-30T12:51:32.019Z,4.67
2018-07-30T12:54:00.596Z,3.67
2018-07-30T12:56:29.195Z,3.87
2018-07-30T12:58:57.706Z,3.57
2018-07-30T13:01:26.340Z,3.50
2018-07-30T13:03:55.111Z,6.27
2018-07-30T13:06:23.682Z,3.10
2018-07-30T13:08:52.215Z,3.43
2018-07-30T13:11:20.691Z,3.70
2018-07-30T13:13:49.160Z,4.43
2018-07-30T13:16:17.800Z,4.50
2018-07-30T13:18:46.587Z,3.37
2018-07-30T13:21:15.279Z,5.97
2018-07-30T13:23:43.750Z,3.40
2018-07-30T13:26:12.984Z,5.00
2018-07-30T13:28:41.979Z,3.70
2018-07-30T13:31:10.694Z,5.67
2018-07-30T13:33:39.473Z,3.43
2018-07-30T13:36:07.942Z,2.90
2018-07-30T13:38:36.570Z,2.93
2018-07-30T13:41:05.418Z,4.43
2018-07-30T13:43:33.967Z,3.80
2018-07-30T13:46:02.379Z,4.70
2018-07-30T13:48:30.899Z,3.13
2018-07-30T13:50:59.481Z,3.33
2018-07-30T13:53:27.983Z,3.10
2018-07-30T13:55:56.524Z,3.23
2018-07-30T13:58:25.175Z,3.87
2018-07-30T14:00:53.966Z,4.00
2018-07-30T14:03:22.576Z,3.07
2018-07-30T14:05:51.202Z,5.77
2018-07-30T14:08:19.876Z,3.50
2018-07-30T14:10:48.542Z,4.60
2018-07-30T14:13:17.171Z,3.33
2018-07-30T14:15:45.705Z,3.67
2018-07-30T14:18:14.319Z,3.60
2018-07-30T14:20:42.893Z,4.27
2018-07-30T14:23:11.342Z,3.50
2018-07-30T14:25:39.811Z,5.90
2018-07-30T14:28:08.422Z,3.00
2018-07-30T14:30:36.932Z,7.97
2018-07-30T14:33:05.444Z,3.30
2018-07-30T14:35:34.075Z,3.45
2018-07-30T14:38:02.518Z,3.30
2018-07-30T14:40:31.097Z,5.90
2018-07-30T14:42:59.618Z,3.80
2018-07-30T14:45:28.282Z,3.15
2018-07-30T14:47:56.791Z,3.62
2018-07-30T14:50:25.308Z,3.70
2018-07-30T14:52:53.954Z,2.55
2018-07-30T14:55:22.557Z,2.83
2018-07-30T14:57:51.119Z,2.70
2018-07-30T15:00:19.750Z,2.67
2018-07-30T15:02:48.403Z,2.40
2018-07-30T15:05:20.799Z,2.50
2018-07-30T15:07:49.731Z,3.45
2018-07-30T15:10:18.226Z,2.50
2018-07-30T15:12:46.809Z,3.33
2018-07-30T15:15:15.480Z,3.22
2018-07-30T15:17:44.012Z,2.65
2018-07-30T15:20:12.847Z,2.83
2018-07-30T15:22:41.728Z,2.60
2018-07-30T15:25:10.427Z,4.50
2018-07-30T15:27:38.986Z,3.27
2018-07-30T15:30:08.024Z,2.30
2018-07-30T15:32:36.579Z,2.80
2018-07-30T15:35:05.023Z,2.67
2018-07-30T15:37:33.650Z,2.47
2018-07-30T15:40:02.355Z,2.90
2018-07-30T15:42:30.858Z,3.50
2018-07-30T15:44:59.366Z,3.00
2018-07-30T15:47:28.031Z,3.37
2018-07-30T15:49:56.561Z,3.20
2018-07-30T15:52:25.171Z,3.02
2018-07-30T15:54:53.858Z,2.98
2018-07-30T15:57:22.346Z,3.65
2018-07-30T15:59:50.871Z,2.90
2018-07-30T16:02:19.548Z,5.35
2018-07-30T16:04:49.043Z,3.42
2018-07-30T16:07:17.854Z,2.85
2018-07-30T16:09:46.575Z,3.10
2018-07-30T16:12:14.964Z,3.20
2018-07-30T16:14:43.403Z,3.10
2018-07-30T16:17:12.366Z,7.12
2018-07-30T16:19:40.971Z,3.08
2018-07-30T16:22:10.574Z,3.70
2018-07-30T16:24:39.746Z,2.55
2018-07-30T16:27:08.230Z,2.80
2018-07-30T16:29:36.746Z,2.70
2018-07-30T16:32:05.548Z,2.70
2018-07-30T16:34:34.031Z,3.10
2018-07-30T16:37:03.795Z,4.10
2018-07-30T16:39:32.299Z,3.70
2018-07-30T16:42:00.893Z,3.65
2018-07-30T16:44:29.391Z,2.90
2018-07-30T16:46:57.775Z,3.87
2018-07-30T16:49:26.400Z,5.20
2018-07-30T16:51:55.229Z,5.33
2018-07-30T16:54:23.689Z,5.78
2018-07-30T16:56:52.331Z,3.52
2018-07-30T16:59:21.884Z,3.62
2018-07-30T17:01:50.566Z,6.08
2018-07-30T17:04:19.346Z,3.77
2018-07-30T17:06:47.962Z,4.20
2018-07-30T17:09:16.871Z,4.30
2018-07-30T17:11:45.597Z,5.53
2018-07-30T17:14:14.293Z,6.63
2018-07-30T17:16:42.961Z,5.97
2018-07-30T17:19:14.789Z,6.00
2018-07-30T17:21:43.446Z,4.60
2018-07-30T17:24:12.101Z,4.23
2018-07-30T17:26:40.859Z,6.13
2018-07-30T17:29:09.455Z,4.53
2018-07-30T17:31:38.219Z,4.27
2018-07-30T17:34:07.417Z,4.33
2018-07-30T17:36:36.304Z,5.13
2018-07-30T17:39:07.224Z,3.93
2018-07-30T17:41:36.438Z,6.00
2018-07-30T17:44:09.630Z,6.30
2018-07-30T17:46:38.554Z,4.13
2018-07-30T17:49:07.617Z,5.00
2018-07-30T17:51:36.566Z,5.90
2018-07-30T17:54:05.252Z,4.57
2018-07-30T17:56:34.281Z,3.60
2018-07-30T17:59:02.910Z,4.43
2018-07-30T18:01:31.479Z,4.30
2018-07-30T18:04:00.313Z,4.30
2018-07-30T18:06:28.999Z,4.40
2018-07-30T18:08:57.789Z,4.97
2018-07-30T18:11:26.423Z,4.43
2018-07-30T18:13:55.020Z,4.60
2018-07-30T18:16:23.593Z,4.27
2018-07-30T18:18:52.218Z,4.10
2018-07-30T18:21:21.745Z,4.30
2018-07-30T18:23:50.453Z,4.30
2018-07-30T18:26:19.007Z,6.20
2018-07-30T18:28:47.729Z,4.50
2018-07-30T18:31:16.335Z,4.97
2018-07-30T18:33:45.346Z,5.40
2018-07-30T18:36:13.902Z,4.60
2018-07-30T18:38:42.438Z,11.63
2018-07-30T18:41:11.385Z,5.73
2018-07-30T18:43:39.939Z,4.20
2018-07-30T18:46:08.678Z,8.60
2018-07-30T18:48:37.468Z,8.03
2018-07-30T18:51:06.182Z,6.87
2018-07-30T18:53:34.909Z,6.80
2018-07-30T18:56:03.658Z,7.60
2018-07-30T18:58:32.113Z,4.47
2018-07-30T19:01:01.171Z,5.50
2018-07-30T19:03:29.802Z,5.60
2018-07-30T19:05:58.608Z,8.10
2018-07-30T19:08:27.597Z,8.20
2018-07-30T19:10:56.223Z,6.63
2018-07-30T19:13:24.862Z,6.13
2018-07-30T19:15:53.546Z,4.53
2018-07-30T19:18:24.075Z,6.93
2018-07-30T19:20:52.978Z,5.67
2018-07-30T19:23:22.662Z,6.83
2018-07-30T19:25:51.451Z,4.93
2018-07-30T19:28:20.536Z,6.33
2018-07-30T19:30:49.208Z,5.10
2018-07-30T19:33:18.173Z,4.70
2018-07-30T19:35:47.435Z,4.60
2018-07-30T19:38:16.001Z,4.47
2018-07-30T19:40:44.478Z,5.60
2018-07-30T19:43:13.083Z,9.47
2018-07-30T19:45:41.689Z,5.23
2018-07-30T19:48:10.460Z,5.00
2018-07-30T19:50:39.005Z,5.47
2018-07-30T19:53:07.720Z,5.27
2018-07-30T19:55:36.790Z,5.17
2018-07-30T19:58:05.140Z,5.30
2018-07-30T20:00:34.066Z,7.67
2018-07-30T20:03:02.981Z,4.93
2018-07-30T20:05:31.828Z,5.97
2018-07-30T20:08:00.698Z,5.73
2018-07-30T20:10:29.691Z,6.73
2018-07-30T20:12:58.976Z,5.07
2018-07-30T20:15:28.077Z,7.70
2018-07-30T20:17:56.291Z,6.37
2018-07-30T20:20:25.370Z,5.97
2018-07-30T20:22:54.548Z,5.17
2018-07-30T20:25:23.747Z,5.20
2018-07-30T20:27:52.733Z,5.10
2018-07-30T20:30:21.636Z,5.10
2018-07-30T20:32:50.957Z,5.00
2018-07-30T20:35:19.495Z,5.63
2018-07-30T20:37:48.111Z,6.87
2018-07-30T20:40:17.092Z,6.47
2018-07-30T20:42:45.908Z,5.97
2018-07-30T20:45:14.532Z,5.90
2018-07-30T20:47:43.088Z,5.87
2018-07-30T20:50:11.954Z,5.67
2018-07-30T20:52:40.706Z,7.80
2018-07-30T20:55:09.736Z,5.70
2018-07-30T20:57:38.268Z,7.67
2018-07-30T21:00:07.473Z,7.87
2018-07-30T21:02:36.087Z,5.50
2018-07-30T21:05:04.662Z,5.03
2018-07-30T21:07:33.524Z,6.60
2018-07-30T21:10:02.199Z,6.00
2018-07-30T21:12:31.359Z,5.77
2018-07-30T21:15:00.828Z,8.50
2018-07-30T21:17:29.641Z,5.33
2018-07-30T21:19:58.743Z,5.80
2018-07-30T21:22:27.496Z,5.73
2018-07-30T21:24:56.563Z,5.63
2018-07-30T21:27:25.846Z,9.83
2018-07-30T21:29:54.886Z,5.90
2018-07-30T21:32:23.324Z,7.63
2018-07-30T21:34:52.030Z,6.03
2018-07-30T21:37:20.628Z,7.47
2018-07-30T21:39:49.134Z,7.20
2018-07-30T21:42:17.575Z,5.83
2018-07-30T21:44:46.368Z,6.37
2018-07-30T21:47:15.012Z,7.53
2018-07-30T21:49:43.771Z,5.60
2018-07-30T21:52:13.033Z,5.27
2018-07-30T21:54:41.899Z,6.17
2018-07-30T21:57:10.655Z,6.10
2018-07-30T21:59:39.227Z,5.70
2018-07-30T22:02:08.108Z,6.20
2018-07-30T22:04:36.889Z,7.37
2018-07-30T22:07:05.663Z,6.60
2018-07-30T22:09:34.328Z,7.60
2018-07-30T22:12:03.050Z,8.13
2018-07-30T22:14:31.484Z,6.07
2018-07-30T22:17:00.221Z,5.93
2018-07-30T22:19:29.711Z,6.83
2018-07-30T22:21:58.270Z,6.20
2018-07-30T22:24:26.839Z,6.27
2018-07-30T22:26:55.461Z,7.20
2018-07-30T22:29:23.940Z,5.87
2018-07-30T22:31:52.440Z,6.50
2018-07-30T22:34:21.131Z,6.17
2018-07-30T22:36:49.782Z,7.30
2018-07-30T22:39:18.555Z,6.00
2018-07-30T22:41:47.190Z,6.10
2018-07-30T22:44:15.642Z,5.83
2018-07-30T22:46:44.395Z,6.93
2018-07-30T22:49:13.221Z,6.20
2018-07-30T22:51:41.642Z,5.80
2018-07-30T22:54:10.176Z,6.03
2018-07-30T22:56:39.205Z,6.60
2018-07-30T22:59:07.990Z,6.03
2018-07-30T23:01:37.446Z,6.07
2018-07-30T23:04:06.066Z,5.80
2018-07-30T23:06:35.067Z,6.07
2018-07-30T23:09:05.450Z,5.87
2018-07-30T23:11:34.040Z,6.37
2018-07-30T23:14:02.478Z,6.13
2018-07-30T23:16:31.161Z,7.13
2018-07-30T23:18:59.621Z,6.50
2018-07-30T23:21:28.095Z,6.77
2018-07-30T23:23:56.703Z,6.70
2018-07-30T23:26:25.324Z,7.00
2018-07-30T23:28:54.213Z,6.07
2018-07-30T23:31:22.783Z,6.23
2018-07-30T23:33:51.359Z,7.40
2018-07-30T23:36:19.826Z,10.47
2018-07-30T23:38:49.211Z,7.07
2018-07-30T23:41:18.028Z,6.47
2018-07-30T23:43:46.511Z,6.20
2018-07-30T23:46:14.977Z,6.63
2018-07-30T23:48:44.290Z,8.27
2018-07-30T23:51:13.079Z,9.53
2018-07-30T23:53:41.526Z,7.17
2018-07-30T23:56:10.486Z,6.90
2018-07-30T23:58:39.046Z,8.63
